createdAt,value
2022-12-31T00:00:41.305Z,31.08
2022-12-31T00:03:15.990Z,30.73
2022-12-31T00:05:50.009Z,31.08
2022-12-31T00:08:22.712Z,32.88
2022-12-31T00:10:53.676Z,30.85
2022-12-31T00:13:26.890Z,32.75
2022-12-31T00:16:04.309Z,31.73
2022-12-31T00:18:37.538Z,32.38
2022-12-31T00:21:11.191Z,31.92
2022-12-31T00:23:43.241Z,32.08
2022-12-31T00:26:17.799Z,30.60
2022-12-31T00:28:49.375Z,30.33
2022-12-31T00:31:21.209Z,31.13
2022-12-31T00:33:57.351Z,31.50
2022-12-31T00:36:29.496Z,29.90
2022-12-31T00:39:01.189Z,29.88
2022-12-31T00:41:36.623Z,30.13
2022-12-31T00:46:54.108Z,28.92
2022-12-31T00:49:23.143Z,29.33
2022-12-31T00:51:52.832Z,30.13
2022-12-31T00:54:25.008Z,29.80
2022-12-31T00:57:00.781Z,28.88
2022-12-31T00:59:40.975Z,29.17
2022-12-31T01:02:16.293Z,29.30
2022-12-31T01:04:57.342Z,27.60
2022-12-31T01:07:31.998Z,28.25
2022-12-31T01:10:11.494Z,28.17
2022-12-31T01:12:45.140Z,30.73
2022-12-31T01:15:17.343Z,28.77
2022-12-31T01:17:50.692Z,27.75
2022-12-31T01:20:20.761Z,31.02
2022-12-31T01:23:00.740Z,30.20
2022-12-31T01:25:36.364Z,28.88
2022-12-31T01:28:12.407Z,29.73
2022-12-31T01:30:53.420Z,30.45
2022-12-31T01:33:22.940Z,31.65
2022-12-31T01:35:58.410Z,30.45
2022-12-31T01:38:30.856Z,30.23
2022-12-31T01:41:02.338Z,31.92
2022-12-31T01:43:57.375Z,31.25
2022-12-31T01:46:47.934Z,30.15
2022-12-31T01:49:29.208Z,32.40
2022-12-31T01:52:04.635Z,34.15
2022-12-31T01:54:38.412Z,31.57
2022-12-31T01:57:12.353Z,33.78
2022-12-31T01:59:51.065Z,33.63
2022-12-31T02:02:33.533Z,35.25
2022-12-31T02:05:04.588Z,34.85
2022-12-31T02:07:38.496Z,34.70
2022-12-31T02:10:09.108Z,37.78
2022-12-31T02:12:45.326Z,36.75
2022-12-31T02:15:20.865Z,34.88
2022-12-31T02:18:13.965Z,36.97
2022-12-31T02:21:14.509Z,37.13
2022-12-31T02:23:50.860Z,38.38
2022-12-31T02:26:51.900Z,35.28
2022-12-31T02:30:09.763Z,38.33
2022-12-31T02:35:27.774Z,37.22
2022-12-31T02:38:07.077Z,37.15
2022-12-31T02:40:41.054Z,37.58
2022-12-31T02:43:17.259Z,36.97
2022-12-31T02:45:48.928Z,36.10
2022-12-31T02:48:47.252Z,36.30
2022-12-31T02:52:03.968Z,37.42
2022-12-31T02:54:54.831Z,38.90
2022-12-31T02:57:37.661Z,37.25
2022-12-31T03:00:32.095Z,37.50
2022-12-31T03:03:08.390Z,36.10
2022-12-31T03:05:47.773Z,35.85
2022-12-31T03:08:24.487Z,36.40
2022-12-31T03:10:59.607Z,35.35
2022-12-31T03:13:33.147Z,36.92
2022-12-31T03:16:08.724Z,35.45
2022-12-31T03:18:57.192Z,34.17
2022-12-31T03:21:47.549Z,34.60
2022-12-31T03:24:35.526Z,33.97
2022-12-31T03:27:10.881Z,33.08
2022-12-31T03:29:40.805Z,34.97
2022-12-31T03:32:20.862Z,33.47
2022-12-31T03:34:57.652Z,34.60
2022-12-31T03:37:33.536Z,33.40
2022-12-31T03:40:09.131Z,34.13
2022-12-31T03:42:44.035Z,33.13
2022-12-31T03:45:19.715Z,33.50
2022-12-31T03:50:27.568Z,31.08
2022-12-31T03:53:01.997Z,31.48
2022-12-31T03:55:35.232Z,33.72
2022-12-31T03:58:06.578Z,30.95
2022-12-31T04:00:41.365Z,32.10
2022-12-31T04:03:17.795Z,31.38
2022-12-31T04:06:05.557Z,30.35
2022-12-31T04:08:42.261Z,29.92
2022-12-31T04:11:25.438Z,30.65
2022-12-31T04:14:01.640Z,30.80
2022-12-31T04:16:37.544Z,30.20
2022-12-31T04:19:10.465Z,29.65
2022-12-31T04:21:42.429Z,29.58
2022-12-31T04:24:14.621Z,30.70
2022-12-31T04:26:45.944Z,29.10
2022-12-31T04:29:23.475Z,30.13
2022-12-31T04:31:58.048Z,28.63
2022-12-31T04:34:30.341Z,28.20
2022-12-31T04:36:59.444Z,27.45
2022-12-31T04:39:34.476Z,26.92
2022-12-31T04:42:07.338Z,26.73
2022-12-31T04:44:41.044Z,27.48
2022-12-31T04:47:15.263Z,26.65
2022-12-31T04:49:52.632Z,27.58
2022-12-31T04:52:25.154Z,27.80
2022-12-31T04:55:00.217Z,28.02
2022-12-31T04:57:41.409Z,25.92
2022-12-31T05:00:16.299Z,26.50
2022-12-31T05:02:57.670Z,26.73
2022-12-31T05:05:32.693Z,26.85
2022-12-31T05:08:11.756Z,26.60
2022-12-31T05:10:53.182Z,25.88
2022-12-31T05:13:23.984Z,25.83
2022-12-31T05:15:56.984Z,25.15
2022-12-31T05:18:37.947Z,25.13
2022-12-31T05:21:15.882Z,24.45
2022-12-31T05:23:55.666Z,25.17
2022-12-31T05:26:28.921Z,24.95
2022-12-31T05:29:01.345Z,23.85
2022-12-31T05:31:37.197Z,26.58
2022-12-31T05:36:56.722Z,22.63
2022-12-31T05:42:08.397Z,23.83
2022-12-31T05:44:42.066Z,25.00
2022-12-31T05:47:14.432Z,23.98
2022-12-31T05:49:46.477Z,24.25
2022-12-31T05:52:18.584Z,25.38
2022-12-31T05:54:49.329Z,22.70
2022-12-31T05:57:24.890Z,24.25
2022-12-31T06:00:00.371Z,24.35
2022-12-31T06:02:36.314Z,24.90
2022-12-31T06:05:21.071Z,23.90
2022-12-31T06:08:01.178Z,22.77
2022-12-31T06:10:36.461Z,25.05
2022-12-31T06:13:09.103Z,23.00
2022-12-31T06:15:42.580Z,23.23
2022-12-31T06:18:12.174Z,24.33
2022-12-31T06:20:54.233Z,23.73
2022-12-31T06:23:25.464Z,22.90
2022-12-31T06:26:00.862Z,23.10
2022-12-31T06:28:37.130Z,23.27
2022-12-31T06:31:10.832Z,22.70
2022-12-31T06:33:42.151Z,22.45
2022-12-31T06:36:26.395Z,21.88
2022-12-31T06:39:04.702Z,22.70
2022-12-31T06:41:40.735Z,24.33
2022-12-31T06:44:14.127Z,21.48
2022-12-31T06:46:46.555Z,23.88
2022-12-31T06:49:17.085Z,23.35
2022-12-31T06:51:52.810Z,23.83
2022-12-31T06:54:29.282Z,21.80
2022-12-31T06:57:05.666Z,23.08
2022-12-31T06:59:40.992Z,23.23
2022-12-31T07:02:32.347Z,22.25
2022-12-31T07:05:42.654Z,21.98
2022-12-31T07:08:36.820Z,22.80
2022-12-31T07:11:12.023Z,21.75
2022-12-31T07:13:54.069Z,22.58
2022-12-31T07:16:47.609Z,22.40
2022-12-31T07:19:47.531Z,22.00
2022-12-31T07:22:25.421Z,22.70
2022-12-31T07:25:01.446Z,23.17
2022-12-31T07:27:44.678Z,23.08
2022-12-31T07:30:21.270Z,21.70
2022-12-31T07:33:29.464Z,22.77
2022-12-31T07:36:21.126Z,21.90
2022-12-31T07:39:15.404Z,23.60
2022-12-31T07:42:03.935Z,23.33
2022-12-31T07:45:03.656Z,22.67
2022-12-31T07:47:37.185Z,22.10
2022-12-31T07:50:12.733Z,23.35
2022-12-31T07:52:52.764Z,22.55
2022-12-31T07:55:30.107Z,22.80
2022-12-31T07:58:13.111Z,23.10
2022-12-31T08:00:42.384Z,22.80
2022-12-31T08:03:42.203Z,22.83
2022-12-31T08:06:23.883Z,22.58
2022-12-31T08:09:31.487Z,23.38
2022-12-31T08:12:12.951Z,22.75
2022-12-31T08:14:52.445Z,23.10
2022-12-31T08:17:22.230Z,23.45
2022-12-31T08:19:54.809Z,22.70
2022-12-31T08:22:45.400Z,23.88
2022-12-31T08:25:18.329Z,22.02
2022-12-31T08:28:01.143Z,22.42
2022-12-31T08:30:42.435Z,22.33
2022-12-31T08:33:14.350Z,24.50
2022-12-31T08:36:00.899Z,23.27
2022-12-31T08:38:49.378Z,21.95
2022-12-31T08:41:29.537Z,22.25
2022-12-31T08:44:26.096Z,22.08
2022-12-31T08:47:09.507Z,22.30
2022-12-31T08:49:42.998Z,22.15
2022-12-31T08:52:18.562Z,23.35
2022-12-31T08:54:49.361Z,23.45
2022-12-31T08:58:01.875Z,23.70
2022-12-31T09:00:35.993Z,22.35
2022-12-31T09:03:23.970Z,22.95
2022-12-31T09:06:17.700Z,22.90
2022-12-31T09:09:31.616Z,22.77
2022-12-31T09:12:13.314Z,24.38
2022-12-31T09:15:31.028Z,22.88
2022-12-31T09:18:04.900Z,22.02
2022-12-31T09:20:43.737Z,22.50
2022-12-31T09:23:20.232Z,22.30
2022-12-31T09:26:02.134Z,22.00
2022-12-31T09:28:49.580Z,23.10
2022-12-31T09:31:46.706Z,22.50
2022-12-31T09:34:37.206Z,23.88
2022-12-31T09:37:17.803Z,22.00
2022-12-31T09:39:51.062Z,23.15
2022-12-31T09:42:49.358Z,23.40
2022-12-31T09:45:45.438Z,23.35
2022-12-31T09:48:45.589Z,22.98
2022-12-31T09:51:36.700Z,22.73
2022-12-31T09:54:21.609Z,21.35
2022-12-31T09:57:16.963Z,22.30
2022-12-31T10:00:17.913Z,22.83
2022-12-31T10:02:53.482Z,21.75
2022-12-31T10:05:55.325Z,22.57
2022-12-31T10:08:40.570Z,22.67
2022-12-31T10:11:52.692Z,23.03
2022-12-31T10:14:50.508Z,23.17
2022-12-31T10:17:59.140Z,23.30
2022-12-31T10:20:45.547Z,23.20
2022-12-31T10:23:35.912Z,23.35
2022-12-31T10:26:11.710Z,23.52
2022-12-31T10:28:50.765Z,22.90
2022-12-31T10:31:46.123Z,24.20
2022-12-31T10:34:25.255Z,23.25
2022-12-31T10:37:17.237Z,24.33
2022-12-31T10:40:06.063Z,24.42
2022-12-31T10:42:45.550Z,24.27
2022-12-31T10:45:50.429Z,24.65
2022-12-31T10:48:51.739Z,26.52
2022-12-31T10:51:45.482Z,26.23
2022-12-31T10:54:55.065Z,26.60
2022-12-31T10:57:38.864Z,26.40
2022-12-31T11:00:24.654Z,26.70
2022-12-31T11:03:01.946Z,27.05
2022-12-31T11:06:12.724Z,27.05
2022-12-31T11:09:07.413Z,27.10
2022-12-31T11:12:15.236Z,27.33
2022-12-31T11:15:09.086Z,26.83
2022-12-31T11:18:02.527Z,26.27
2022-12-31T11:20:36.971Z,26.10
2022-12-31T11:23:49.410Z,26.55
2022-12-31T11:26:31.060Z,27.98
2022-12-31T11:29:00.145Z,27.17
2022-12-31T11:32:05.395Z,28.20
2022-12-31T11:34:51.618Z,27.55
2022-12-31T11:37:39.245Z,27.63
2022-12-31T11:40:38.499Z,28.92
2022-12-31T11:43:57.142Z,29.30
2022-12-31T11:46:59.200Z,29.20
2022-12-31T11:49:47.891Z,29.30
2022-12-31T11:52:42.508Z,29.58
2022-12-31T11:55:33.287Z,30.00
2022-12-31T11:58:25.220Z,30.00
2022-12-31T12:01:10.726Z,29.98
2022-12-31T12:03:45.714Z,29.13
2022-12-31T12:06:16.687Z,29.55
2022-12-31T12:08:52.235Z,29.73
2022-12-31T12:11:26.368Z,29.02
2022-12-31T12:13:57.898Z,28.95
2022-12-31T12:16:41.247Z,29.85
2022-12-31T12:19:19.054Z,30.73
2022-12-31T12:22:00.473Z,31.25
2022-12-31T12:24:39.793Z,30.90
2022-12-31T12:27:28.042Z,30.52
2022-12-31T12:30:04.277Z,30.80
2022-12-31T12:32:39.797Z,31.20
2022-12-31T12:35:17.842Z,30.73
2022-12-31T12:37:52.061Z,32.10
2022-12-31T12:40:33.755Z,31.63
2022-12-31T12:43:09.430Z,31.02
2022-12-31T12:45:51.838Z,32.08
2022-12-31T12:48:46.607Z,32.70
2022-12-31T12:51:22.231Z,32.33
2022-12-31T12:54:09.954Z,34.08
2022-12-31T12:56:44.893Z,33.00
2022-12-31T12:59:39.919Z,31.75
2022-12-31T13:02:29.298Z,32.05
2022-12-31T13:05:09.938Z,32.63
2022-12-31T13:07:46.612Z,31.67
2022-12-31T13:10:55.047Z,32.72
2022-12-31T13:13:52.837Z,32.15
2022-12-31T13:16:42.699Z,34.65
2022-12-31T13:19:42.120Z,32.65
2022-12-31T13:22:23.573Z,33.47
2022-12-31T13:25:03.563Z,33.25
2022-12-31T13:27:49.614Z,33.85
2022-12-31T13:30:33.761Z,34.15
2022-12-31T13:33:10.548Z,34.00
2022-12-31T13:35:59.963Z,33.72
2022-12-31T13:41:24.185Z,33.22
2022-12-31T13:44:22.583Z,32.72
2022-12-31T13:47:21.321Z,33.80
2022-12-31T13:50:03.418Z,34.37
2022-12-31T13:52:45.622Z,34.55
2022-12-31T13:55:34.504Z,35.50
2022-12-31T13:58:21.942Z,35.40
2022-12-31T14:00:54.280Z,33.67
2022-12-31T14:03:41.542Z,34.70
2022-12-31T14:06:29.074Z,35.80
2022-12-31T14:09:04.666Z,36.35
2022-12-31T14:11:55.898Z,36.00
2022-12-31T14:14:49.142Z,35.65
2022-12-31T14:17:24.597Z,36.08
2022-12-31T14:20:25.836Z,34.65
2022-12-31T14:23:27.334Z,36.28
2022-12-31T14:26:10.150Z,34.13
2022-12-31T14:28:49.653Z,37.67
2022-12-31T14:31:32.671Z,36.53
2022-12-31T14:34:22.540Z,37.70
2022-12-31T14:37:08.480Z,36.70
2022-12-31T14:39:44.431Z,38.53
2022-12-31T14:45:33.853Z,36.30
2022-12-31T14:48:25.253Z,36.25
2022-12-31T14:51:01.104Z,38.35
2022-12-31T14:53:31.962Z,39.25
2022-12-31T14:56:18.954Z,38.53
2022-12-31T14:58:57.338Z,37.28
2022-12-31T15:01:31.861Z,38.88
2022-12-31T15:04:07.451Z,37.28
2022-12-31T15:06:41.930Z,40.05
2022-12-31T15:09:30.505Z,41.08
2022-12-31T15:12:18.918Z,39.42
2022-12-31T15:14:50.084Z,40.13
2022-12-31T15:17:48.108Z,39.80
2022-12-31T15:20:36.055Z,40.00
2022-12-31T15:23:25.348Z,40.58
2022-12-31T15:26:01.710Z,41.72
2022-12-31T15:28:44.962Z,39.35
2022-12-31T15:31:19.384Z,40.60
2022-12-31T15:34:16.322Z,42.72
2022-12-31T15:36:53.548Z,40.40
2022-12-31T15:39:33.324Z,41.63
2022-12-31T15:45:12.229Z,41.50
2022-12-31T15:47:46.386Z,41.70
2022-12-31T15:50:19.906Z,40.92
2022-12-31T15:52:57.340Z,43.33
2022-12-31T15:55:55.651Z,41.50
2022-12-31T15:58:37.916Z,41.10
2022-12-31T16:01:28.153Z,41.45
2022-12-31T16:04:33.130Z,41.20
2022-12-31T16:07:18.427Z,41.85
2022-12-31T16:09:54.946Z,43.83
2022-12-31T16:12:44.166Z,53.55
2022-12-31T16:15:25.183Z,57.17
2022-12-31T16:18:22.966Z,70.88
2022-12-31T16:20:58.837Z,75.15
2022-12-31T16:23:30.651Z,73.40
2022-12-31T16:26:08.110Z,73.65
2022-12-31T16:28:42.623Z,70.60
2022-12-31T16:31:22.456Z,70.68
2022-12-31T16:33:53.403Z,72.78
2022-12-31T16:36:24.045Z,70.28
2022-12-31T16:38:58.341Z,68.35
2022-12-31T16:41:31.376Z,67.07
2022-12-31T16:44:12.526Z,65.32
2022-12-31T16:46:45.240Z,67.10
2022-12-31T16:49:20.685Z,63.42
2022-12-31T16:51:54.089Z,66.72
2022-12-31T16:54:31.247Z,66.10
2022-12-31T16:57:01.448Z,65.38
2022-12-31T16:59:41.645Z,62.90
2022-12-31T17:02:31.236Z,63.75
2022-12-31T17:05:03.364Z,64.82
2022-12-31T17:07:35.195Z,64.78
2022-12-31T17:10:11.388Z,64.15
2022-12-31T17:15:57.353Z,62.88
2022-12-31T17:18:30.291Z,65.10
2022-12-31T17:21:20.656Z,65.57
2022-12-31T17:24:00.934Z,65.90
2022-12-31T17:26:36.799Z,64.72
2022-12-31T17:29:12.817Z,66.45
2022-12-31T17:31:45.564Z,66.68
2022-12-31T17:34:21.304Z,66.43
2022-12-31T17:37:17.649Z,66.75
2022-12-31T17:39:55.690Z,65.63
2022-12-31T17:42:42.538Z,65.78
2022-12-31T17:45:21.486Z,68.07
2022-12-31T17:47:54.116Z,66.95
2022-12-31T17:50:25.286Z,67.55
2022-12-31T17:53:09.762Z,65.30
2022-12-31T17:55:48.641Z,66.30
2022-12-31T17:58:36.309Z,64.15
2022-12-31T18:01:20.883Z,65.90
2022-12-31T18:04:06.088Z,65.07
2022-12-31T18:06:37.489Z,64.50
2022-12-31T18:09:13.636Z,64.55
2022-12-31T18:11:45.180Z,67.40
2022-12-31T18:14:17.852Z,62.45
2022-12-31T18:16:52.476Z,64.63
2022-12-31T18:19:54.732Z,63.90
2022-12-31T18:22:22.302Z,63.28
2022-12-31T18:24:58.180Z,61.30
2022-12-31T18:27:29.693Z,60.38
2022-12-31T18:30:08.432Z,63.63
2022-12-31T18:32:44.692Z,61.50
2022-12-31T18:36:07.125Z,62.05
2022-12-31T18:38:14.942Z,63.65
2022-12-31T18:41:10.067Z,62.65
2022-12-31T18:43:43.006Z,61.28
2022-12-31T18:46:17.627Z,58.00
2022-12-31T18:48:57.122Z,59.60
2022-12-31T18:51:38.239Z,60.95
2022-12-31T18:54:13.282Z,61.50
2022-12-31T18:56:52.501Z,59.17
2022-12-31T18:59:33.658Z,61.95
2022-12-31T19:02:08.210Z,60.13
2022-12-31T19:04:42.049Z,60.83
2022-12-31T19:07:16.394Z,59.80
2022-12-31T19:09:54.635Z,61.35
2022-12-31T19:12:40.730Z,62.22
2022-12-31T19:15:39.854Z,60.97
2022-12-31T19:18:22.062Z,61.83
2022-12-31T19:21:05.029Z,62.88
2022-12-31T19:23:45.272Z,61.35
2022-12-31T19:26:39.585Z,61.53
2022-12-31T19:29:20.389Z,62.38
2022-12-31T19:31:54.105Z,60.30
2022-12-31T19:34:27.007Z,61.75
2022-12-31T19:36:57.148Z,64.20
2022-12-31T19:39:29.314Z,62.83
2022-12-31T19:42:05.443Z,64.50
2022-12-31T19:44:41.112Z,65.53
2022-12-31T19:47:26.187Z,61.78
2022-12-31T19:50:01.181Z,67.57
2022-12-31T19:52:33.502Z,66.28
2022-12-31T19:55:13.986Z,63.60
2022-12-31T19:57:49.628Z,67.88
2022-12-31T20:00:19.789Z,67.50
2022-12-31T20:02:53.609Z,67.90
2022-12-31T20:05:28.984Z,67.32
2022-12-31T20:08:04.718Z,66.75
2022-12-31T20:10:45.418Z,68.93
2022-12-31T20:13:16.158Z,67.45
2022-12-31T20:15:49.465Z,69.43
2022-12-31T20:18:22.180Z,67.43
2022-12-31T20:20:56.049Z,67.07
2022-12-31T20:23:30.357Z,67.82
2022-12-31T20:26:05.722Z,66.85
2022-12-31T20:28:41.449Z,67.27
2022-12-31T20:31:14.041Z,66.20
2022-12-31T20:33:45.441Z,64.85
2022-12-31T20:36:18.632Z,66.10
2022-12-31T20:38:53.192Z,64.57
2022-12-31T20:41:26.370Z,66.18
2022-12-31T20:43:57.281Z,64.72
2022-12-31T20:46:33.065Z,66.15
2022-12-31T20:49:12.949Z,65.03
2022-12-31T20:51:51.958Z,63.50
2022-12-31T20:54:31.816Z,64.03
2022-12-31T20:57:07.324Z,62.90
2022-12-31T20:59:47.061Z,64.93
2022-12-31T21:02:21.294Z,61.85
2022-12-31T21:04:57.863Z,62.38
2022-12-31T21:07:27.483Z,64.95
2022-12-31T21:10:08.695Z,64.07
2022-12-31T21:12:48.478Z,62.33
2022-12-31T21:15:17.607Z,64.25
2022-12-31T21:17:57.375Z,64.55
2022-12-31T21:20:34.146Z,63.88
2022-12-31T21:23:05.215Z,65.32
2022-12-31T21:25:43.548Z,65.47
2022-12-31T21:28:19.249Z,63.78
2022-12-31T21:30:52.963Z,62.97
2022-12-31T21:33:25.463Z,64.20
2022-12-31T21:36:04.561Z,65.07
2022-12-31T21:38:39.029Z,65.13
2022-12-31T21:41:13.192Z,62.30
2022-12-31T21:43:48.847Z,63.35
2022-12-31T21:46:18.607Z,61.53
2022-12-31T21:48:51.675Z,59.30
2022-12-31T21:51:21.331Z,60.55
2022-12-31T21:53:59.959Z,61.40
2022-12-31T21:56:33.679Z,59.78
2022-12-31T21:59:21.504Z,59.97
2022-12-31T22:02:10.937Z,59.85
2022-12-31T22:05:01.788Z,60.67
2022-12-31T22:07:34.632Z,59.25
2022-12-31T22:10:09.057Z,59.50
2022-12-31T22:12:45.315Z,58.58
2022-12-31T22:15:17.473Z,59.22
2022-12-31T22:17:52.125Z,56.10
2022-12-31T22:20:27.536Z,56.58
2022-12-31T22:23:04.044Z,57.60
2022-12-31T22:25:47.769Z,56.33
2022-12-31T22:31:34.359Z,55.97
2022-12-31T22:34:06.789Z,53.13
2022-12-31T22:36:37.494Z,53.90
2022-12-31T22:39:12.664Z,53.95
2022-12-31T22:44:49.532Z,54.38
2022-12-31T22:47:24.948Z,55.28
2022-12-31T22:49:58.921Z,54.22
2022-12-31T22:52:29.538Z,53.03
2022-12-31T22:55:04.808Z,52.13
2022-12-31T22:57:38.615Z,54.90
2022-12-31T23:00:11.517Z,54.78
2022-12-31T23:02:45.476Z,55.28
2022-12-31T23:05:18.935Z,52.92
2022-12-31T23:07:49.475Z,54.30
2022-12-31T23:10:38.530Z,54.08
2022-12-31T23:13:31.101Z,51.80
2022-12-31T23:16:19.258Z,52.03
2022-12-31T23:19:08.875Z,53.13
2022-12-31T23:21:58.743Z,52.05
2022-12-31T23:24:37.886Z,50.83
2022-12-31T23:27:09.181Z,51.78
2022-12-31T23:29:47.516Z,53.65
2022-12-31T23:32:21.513Z,50.88
2022-12-31T23:34:57.438Z,52.08
2022-12-31T23:40:22.169Z,50.78
2022-12-31T23:43:01.491Z,48.67
2022-12-31T23:48:20.996Z,48.55
2022-12-31T23:53:38.210Z,50.10
2022-12-31T23:56:14.843Z,50.97
2022-12-31T23:58:56.127Z,51.53
